createdAt,value
2019-04-21T00:01:05.741Z,19.07
2019-04-21T00:03:41.067Z,17.27
2019-04-21T00:06:25.061Z,17.62
2019-04-21T00:08:56.478Z,18.75
2019-04-21T00:11:30.022Z,16.57
2019-04-21T00:13:52.659Z,13.58
2019-04-21T00:16:12.609Z,12.73
2019-04-21T00:18:57.524Z,12.80
2019-04-21T00:21:29.233Z,11.43
2019-04-21T00:24:20.301Z,13.10
2019-04-21T00:26:58.980Z,13.05
2019-04-21T00:29:35.392Z,12.58
2019-04-21T00:31:58.828Z,12.40
2019-04-21T00:34:13.342Z,13.28
2019-04-21T00:36:53.491Z,13.27
2019-04-21T00:39:43.354Z,14.03
2019-04-21T00:42:08.889Z,13.80
2019-04-21T00:44:28.415Z,15.72
2019-04-21T00:47:01.801Z,16.45
2019-04-21T00:49:33.074Z,16.70
2019-04-21T00:52:43.324Z,16.82
2019-04-21T00:55:18.752Z,16.20
2019-04-21T00:57:43.138Z,15.08
2019-04-21T01:00:10.635Z,14.68
2019-04-21T01:02:45.530Z,14.00
2019-04-21T01:05:15.183Z,14.60
2019-04-21T01:07:42.956Z,14.45
2019-04-21T01:10:06.491Z,14.83
2019-04-21T01:12:41.945Z,13.83
2019-04-21T01:15:19.206Z,15.58
2019-04-21T01:17:48.090Z,13.62
2019-04-21T01:20:12.177Z,14.65
2019-04-21T01:22:26.008Z,14.98
2019-04-21T01:25:04.681Z,15.75
2019-04-21T01:27:49.462Z,14.60
2019-04-21T01:30:18.902Z,17.80
2019-04-21T01:33:05.444Z,19.85
2019-04-21T01:35:34.343Z,19.32
2019-04-21T01:38:04.983Z,18.30
2019-04-21T01:40:33.840Z,18.27
2019-04-21T01:43:05.645Z,20.55
2019-04-21T01:45:40.043Z,18.85
2019-04-21T01:48:05.804Z,19.20
2019-04-21T01:50:41.146Z,19.12
2019-04-21T01:53:30.674Z,29.05
2019-04-21T01:56:16.911Z,39.30
2019-04-21T01:58:41.223Z,30.48
2019-04-21T02:01:15.605Z,21.82
2019-04-21T02:04:14.122Z,21.27
2019-04-21T02:06:44.398Z,19.07
2019-04-21T02:09:14.924Z,17.92
2019-04-21T02:11:50.481Z,18.17
2019-04-21T02:14:29.866Z,18.35
2019-04-21T02:16:49.563Z,16.30
2019-04-21T02:19:19.914Z,16.05
2019-04-21T02:21:44.924Z,17.02
2019-04-21T02:24:31.652Z,15.13
2019-04-21T02:26:57.321Z,18.37
2019-04-21T02:29:29.546Z,26.10
2019-04-21T02:34:41.435Z,25.60
2019-04-21T02:39:43.388Z,22.27
2019-04-21T02:44:44.722Z,15.60
2019-04-21T02:47:21.697Z,14.45
2019-04-21T02:49:56.875Z,15.88
2019-04-21T02:52:29.180Z,16.15
2019-04-21T02:57:18.535Z,14.78
2019-04-21T02:59:58.938Z,15.53
2019-04-21T03:02:42.995Z,23.02
2019-04-21T03:05:25.684Z,23.57
2019-04-21T03:07:52.695Z,21.48
2019-04-21T03:10:20.683Z,17.30
2019-04-21T03:17:49.847Z,17.85
2019-04-21T03:20:27.406Z,18.15
2019-04-21T03:22:53.502Z,19.17
2019-04-21T03:25:41.724Z,22.02
2019-04-21T03:27:56.854Z,24.25
2019-04-21T03:30:42.762Z,16.25
2019-04-21T03:33:23.850Z,17.65
2019-04-21T03:38:00.190Z,16.45
2019-04-21T03:42:57.012Z,15.93
2019-04-21T03:45:32.701Z,15.53
2019-04-21T03:48:04.744Z,16.05
2019-04-21T03:53:06.832Z,16.02
2019-04-21T04:01:02.398Z,15.75
2019-04-21T04:03:52.112Z,15.63
2019-04-21T04:13:58.115Z,16.90
2019-04-21T04:18:53.142Z,16.17
2019-04-21T04:21:30.269Z,16.67
2019-04-21T04:26:36.302Z,16.95
2019-04-21T04:29:03.441Z,17.77
2019-04-21T04:34:04.464Z,17.42
2019-04-21T04:36:43.389Z,17.90
2019-04-21T04:39:41.293Z,18.40
2019-04-21T04:47:22.744Z,17.02
2019-04-21T04:50:10.281Z,17.48
2019-04-21T04:55:03.504Z,17.25
2019-04-21T05:00:14.279Z,17.67
2019-04-21T05:02:52.320Z,15.72
2019-04-21T05:05:17.308Z,16.73
2019-04-21T05:10:07.553Z,15.55
2019-04-21T05:12:38.838Z,17.57
2019-04-21T05:15:07.743Z,16.87
2019-04-21T05:20:11.786Z,17.48
2019-04-21T05:22:35.529Z,18.40
2019-04-21T05:25:03.439Z,16.48
2019-04-21T05:27:33.567Z,16.75
2019-04-21T05:30:17.799Z,16.73
2019-04-21T05:32:48.757Z,16.27
2019-04-21T05:35:22.831Z,17.02
2019-04-21T05:38:02.012Z,16.70
2019-04-21T05:40:27.428Z,16.67
2019-04-21T05:43:04.409Z,16.62
2019-04-21T05:45:33.545Z,16.17
2019-04-21T05:48:19.209Z,16.70
2019-04-21T05:50:36.473Z,14.35
2019-04-21T05:53:17.751Z,14.35
2019-04-21T05:55:44.551Z,14.20
2019-04-21T05:58:08.480Z,14.23
2019-04-21T06:03:15.754Z,12.20
2019-04-21T06:06:00.274Z,13.68
2019-04-21T06:08:23.496Z,10.43
2019-04-21T06:10:52.305Z,10.20
2019-04-21T06:13:26.814Z,10.53
2019-04-21T06:15:56.243Z,11.50
2019-04-21T06:18:35.410Z,11.12
2019-04-21T06:20:59.793Z,11.88
2019-04-21T06:23:30.060Z,11.85
2019-04-21T06:26:12.182Z,11.25
2019-04-21T06:28:33.625Z,11.53
2019-04-21T06:31:42.404Z,12.13
2019-04-21T06:33:50.677Z,12.28
2019-04-21T06:36:36.275Z,11.00
2019-04-21T06:39:11.665Z,10.35
2019-04-21T06:44:07.657Z,10.85
2019-04-21T06:46:35.365Z,11.40
2019-04-21T06:49:02.854Z,11.20
2019-04-21T06:51:38.634Z,9.45
2019-04-21T06:54:10.246Z,10.85
2019-04-21T06:56:42.338Z,9.48
2019-04-21T06:59:21.714Z,9.35
2019-04-21T07:01:42.172Z,9.65
2019-04-21T07:04:19.715Z,11.80
2019-04-21T07:11:44.495Z,10.88
2019-04-21T07:16:53.129Z,7.85
2019-04-21T07:19:30.674Z,8.55
2019-04-21T07:22:04.785Z,8.45
2019-04-21T07:24:30.413Z,9.93
2019-04-21T07:29:23.979Z,10.20
2019-04-21T07:31:58.732Z,8.85
2019-04-21T07:34:27.088Z,9.45
2019-04-21T07:36:54.892Z,8.83
2019-04-21T07:39:45.045Z,8.83
2019-04-21T07:42:13.404Z,10.72
2019-04-21T07:44:44.805Z,11.22
2019-04-21T07:47:15.563Z,10.28
2019-04-21T07:49:56.555Z,11.40
2019-04-21T07:52:35.078Z,13.68
2019-04-21T07:55:19.762Z,11.57
2019-04-21T07:57:33.078Z,12.55
2019-04-21T08:00:20.995Z,11.93
2019-04-21T08:02:34.092Z,11.80
2019-04-21T08:05:13.090Z,13.08
2019-04-21T08:07:48.035Z,12.82
2019-04-21T08:10:11.179Z,12.53
2019-04-21T08:12:36.402Z,12.25
2019-04-21T08:15:34.863Z,12.50
2019-04-21T08:17:45.720Z,11.65
2019-04-21T08:20:14.311Z,13.32
2019-04-21T08:25:16.557Z,12.40
2019-04-21T08:30:21.463Z,10.53
2019-04-21T08:35:50.942Z,11.60
2019-04-21T08:37:48.516Z,10.50
2019-04-21T08:40:33.099Z,11.18
2019-04-21T08:42:55.254Z,9.15
2019-04-21T08:45:29.422Z,9.13
2019-04-21T08:47:58.230Z,9.85
2019-04-21T08:50:25.377Z,11.08
2019-04-21T08:53:01.751Z,9.43
2019-04-21T08:55:48.985Z,9.63
2019-04-21T08:58:22.694Z,9.43
2019-04-21T09:00:56.254Z,9.50
2019-04-21T09:03:43.027Z,8.70
2019-04-21T09:06:13.812Z,9.18
2019-04-21T09:08:41.680Z,10.15
2019-04-21T09:11:12.850Z,10.20
2019-04-21T09:13:41.104Z,9.25
2019-04-21T09:16:08.499Z,8.68
2019-04-21T09:18:42.048Z,9.55
2019-04-21T09:21:21.872Z,8.75
2019-04-21T09:23:45.335Z,10.00
2019-04-21T09:26:18.786Z,9.30
2019-04-21T09:28:45.031Z,9.23
2019-04-21T09:31:05.299Z,9.40
2019-04-21T09:33:39.095Z,9.10
2019-04-21T09:36:09.699Z,8.70
2019-04-21T09:38:41.504Z,8.28
2019-04-21T09:41:15.933Z,8.38
2019-04-21T09:43:45.329Z,9.00
2019-04-21T09:46:09.530Z,8.78
2019-04-21T09:48:49.594Z,8.50
2019-04-21T09:51:30.581Z,8.83
2019-04-21T09:54:05.794Z,9.70
2019-04-21T09:56:40.535Z,9.78
2019-04-21T09:59:11.409Z,9.35
2019-04-21T10:01:49.137Z,8.55
2019-04-21T10:04:05.683Z,8.88
2019-04-21T10:06:35.375Z,8.50
2019-04-21T10:09:10.266Z,8.70
2019-04-21T10:11:38.341Z,8.55
2019-04-21T10:14:07.734Z,8.35
2019-04-21T10:19:11.014Z,7.55
2019-04-21T10:21:42.369Z,6.87
2019-04-21T10:24:12.524Z,7.80
2019-04-21T10:26:43.093Z,7.40
2019-04-21T10:29:19.690Z,7.22
2019-04-21T10:31:44.865Z,6.80
2019-04-21T10:34:14.485Z,7.15
2019-04-21T10:36:44.858Z,7.05
2019-04-21T10:41:43.531Z,7.17
2019-04-21T10:44:13.537Z,7.80
2019-04-21T10:46:45.735Z,8.15
2019-04-21T10:49:14.805Z,6.95
2019-04-21T10:51:44.319Z,7.80
2019-04-21T10:54:13.736Z,7.28
2019-04-21T10:56:44.457Z,6.37
2019-04-21T10:59:14.378Z,7.58
2019-04-21T11:01:45.178Z,7.50
2019-04-21T11:04:21.894Z,7.30
2019-04-21T11:06:48.541Z,7.50
2019-04-21T11:09:18.090Z,7.00
2019-04-21T11:11:49.895Z,6.55
2019-04-21T11:14:18.993Z,7.17
2019-04-21T11:16:49.761Z,7.10
2019-04-21T11:19:20.066Z,6.58
2019-04-21T11:21:49.554Z,5.97
2019-04-21T11:24:18.914Z,5.92
2019-04-21T11:26:49.733Z,6.22
2019-04-21T11:29:19.460Z,6.00
2019-04-21T11:31:49.322Z,6.77
2019-04-21T11:34:18.879Z,6.25
2019-04-21T11:36:48.227Z,6.33
2019-04-21T11:39:33.479Z,5.83
2019-04-21T11:41:57.647Z,6.22
2019-04-21T11:44:27.112Z,6.67
2019-04-21T11:46:56.533Z,6.45
2019-04-21T11:49:27.650Z,5.30
2019-04-21T11:51:56.971Z,5.45
2019-04-21T11:54:26.738Z,6.00
2019-04-21T11:56:56.930Z,5.90
2019-04-21T11:59:27.878Z,6.28
2019-04-21T12:01:57.492Z,5.80
2019-04-21T12:04:27.511Z,5.55
2019-04-21T12:06:57.892Z,5.85
2019-04-21T12:09:29.319Z,5.90
2019-04-21T12:11:59.084Z,6.12
2019-04-21T12:14:30.150Z,6.35
2019-04-21T12:16:59.788Z,6.40
2019-04-21T12:19:30.476Z,6.00
2019-04-21T12:22:10.078Z,5.62
2019-04-21T12:24:33.420Z,5.40
2019-04-21T12:27:04.100Z,5.85
2019-04-21T12:29:35.563Z,6.28
2019-04-21T12:32:42.721Z,5.90
2019-04-21T12:35:13.955Z,6.00
2019-04-21T12:37:44.721Z,6.25
2019-04-21T12:40:14.799Z,5.85
2019-04-21T12:45:15.234Z,5.70
2019-04-21T12:47:47.338Z,6.25
2019-04-21T12:50:17.031Z,5.97
2019-04-21T12:52:47.441Z,5.92
2019-04-21T12:55:17.674Z,6.10
2019-04-21T12:57:47.673Z,5.45
2019-04-21T13:00:20.753Z,6.12
2019-04-21T13:02:50.286Z,5.42
2019-04-21T13:05:19.943Z,5.05
2019-04-21T13:07:49.515Z,5.10
2019-04-21T13:10:20.095Z,4.92
2019-04-21T13:12:50.061Z,5.85
2019-04-21T13:15:19.934Z,4.87
2019-04-21T13:17:50.257Z,5.42
2019-04-21T13:20:21.062Z,4.95
2019-04-21T13:22:50.515Z,5.22
2019-04-21T13:25:20.116Z,6.10
2019-04-21T13:27:50.654Z,5.40
2019-04-21T13:30:20.174Z,5.60
2019-04-21T13:32:51.263Z,5.80
2019-04-21T13:35:21.202Z,6.12
2019-04-21T13:37:52.241Z,5.75
2019-04-21T13:40:56.856Z,5.25
2019-04-21T13:43:12.732Z,5.37
2019-04-21T13:45:43.528Z,5.55
2019-04-21T13:48:12.967Z,5.62
2019-04-21T13:50:43.642Z,5.50
2019-04-21T13:53:14.516Z,5.37
2019-04-21T13:55:44.650Z,4.87
2019-04-21T13:58:14.591Z,4.95
2019-04-21T14:00:45.455Z,4.53
2019-04-21T14:03:16.377Z,5.25
2019-04-21T14:05:46.528Z,5.22
2019-04-21T14:08:16.216Z,5.37
2019-04-21T14:10:45.596Z,4.83
2019-04-21T14:13:16.354Z,4.87
2019-04-21T14:15:48.230Z,4.97
2019-04-21T14:18:18.508Z,5.08
2019-04-21T14:20:49.135Z,4.97
2019-04-21T14:23:29.917Z,4.92
2019-04-21T14:25:50.103Z,5.08
2019-04-21T14:28:21.957Z,4.97
2019-04-21T14:30:52.576Z,5.30
2019-04-21T14:33:23.494Z,5.30
2019-04-21T14:35:54.652Z,5.12
2019-04-21T14:38:24.924Z,5.30
2019-04-21T14:40:54.457Z,4.78
2019-04-21T14:43:23.971Z,4.42
2019-04-21T14:45:58.628Z,5.07
2019-04-21T14:48:30.098Z,5.10
2019-04-21T14:51:07.138Z,4.90
2019-04-21T14:53:47.813Z,4.58
2019-04-21T14:56:17.503Z,4.58
2019-04-21T14:58:48.794Z,4.28
2019-04-21T15:01:18.256Z,4.55
2019-04-21T15:03:47.918Z,4.50
2019-04-21T15:06:17.412Z,4.60
2019-04-21T15:08:47.092Z,4.45
2019-04-21T15:11:17.972Z,4.42
2019-04-21T15:13:48.086Z,4.37
2019-04-21T15:16:18.708Z,4.20
2019-04-21T15:18:48.599Z,4.42
2019-04-21T15:21:19.176Z,4.60
2019-04-21T15:23:48.805Z,4.50
2019-04-21T15:26:18.200Z,5.05
2019-04-21T15:28:48.851Z,5.58
2019-04-21T15:31:23.884Z,4.62
2019-04-21T15:33:49.622Z,5.05
2019-04-21T15:36:19.103Z,5.10
2019-04-21T15:38:49.627Z,5.17
2019-04-21T15:41:20.440Z,5.50
2019-04-21T15:43:50.813Z,5.25
2019-04-21T15:46:20.538Z,5.17
2019-04-21T15:48:51.001Z,5.50
2019-04-21T15:51:21.654Z,4.97
2019-04-21T15:53:52.003Z,4.47
2019-04-21T15:56:31.039Z,5.30
2019-04-21T15:59:02.231Z,5.03
2019-04-21T16:01:52.530Z,4.25
2019-04-21T16:04:22.986Z,4.45
2019-04-21T16:09:25.927Z,4.90
2019-04-21T16:11:53.767Z,5.08
2019-04-21T16:14:23.151Z,5.35
2019-04-21T16:16:53.671Z,5.10
2019-04-21T16:19:23.215Z,5.42
2019-04-21T16:21:52.891Z,6.00
2019-04-21T16:24:23.285Z,5.28
2019-04-21T16:26:53.945Z,5.62
2019-04-21T16:29:23.311Z,5.75
2019-04-21T16:31:53.290Z,17.15
2019-04-21T16:34:34.470Z,31.25
2019-04-21T16:36:53.953Z,16.25
2019-04-21T16:39:23.458Z,25.80
2019-04-21T16:41:54.073Z,12.37
2019-04-21T16:44:25.181Z,17.40
2019-04-21T16:46:55.708Z,7.03
2019-04-21T16:49:25.496Z,9.73
2019-04-21T16:52:12.543Z,8.58
2019-04-21T16:54:44.106Z,9.33
2019-04-21T16:57:19.619Z,7.00
2019-04-21T16:59:50.960Z,6.70
2019-04-21T17:02:20.635Z,6.03
2019-04-21T17:04:50.100Z,6.60
2019-04-21T17:07:20.034Z,7.75
2019-04-21T17:09:50.629Z,9.33
2019-04-21T17:12:22.741Z,9.95
2019-04-21T17:15:08.472Z,10.70
2019-04-21T17:17:45.863Z,6.65
2019-04-21T17:20:04.413Z,8.25
2019-04-21T17:22:25.755Z,6.90
2019-04-21T17:24:56.033Z,6.58
2019-04-21T17:27:27.075Z,7.50
2019-04-21T17:29:56.829Z,7.72
2019-04-21T17:32:32.113Z,6.83
2019-04-21T17:34:58.092Z,7.30
2019-04-21T17:37:30.571Z,6.50
2019-04-21T17:40:03.215Z,6.62
2019-04-21T17:42:39.768Z,6.70
2019-04-21T17:45:05.426Z,6.65
2019-04-21T17:47:44.902Z,8.45
2019-04-21T17:50:15.611Z,8.93
2019-04-21T17:52:55.630Z,11.33
2019-04-21T17:55:27.312Z,11.68
2019-04-21T17:58:09.356Z,13.40
2019-04-21T18:01:07.857Z,26.02
2019-04-21T18:03:27.086Z,25.65
2019-04-21T18:05:42.412Z,21.30
2019-04-21T18:08:19.063Z,17.45
2019-04-21T18:10:45.777Z,19.48
2019-04-21T18:13:07.814Z,27.98
2019-04-21T18:15:50.624Z,21.90
2019-04-21T18:18:02.963Z,27.35
2019-04-21T18:20:35.392Z,26.80
2019-04-21T18:23:34.893Z,18.60
2019-04-21T18:26:01.959Z,17.17
2019-04-21T18:28:26.314Z,15.98
2019-04-21T18:30:58.379Z,13.93
2019-04-21T18:33:33.276Z,13.35
2019-04-21T18:36:05.120Z,10.58
2019-04-21T18:39:10.358Z,10.43
2019-04-21T18:41:30.353Z,8.48
2019-04-21T18:44:46.222Z,8.78
2019-04-21T18:47:19.870Z,7.78
2019-04-21T18:49:29.122Z,9.13
2019-04-21T18:52:19.219Z,7.97
2019-04-21T18:54:54.950Z,7.97
2019-04-21T18:57:24.416Z,7.33
2019-04-21T18:59:45.539Z,7.40
2019-04-21T19:02:17.776Z,7.28
2019-04-21T19:04:46.314Z,7.22
2019-04-21T19:07:30.605Z,8.55
2019-04-21T19:10:20.594Z,8.23
2019-04-21T19:13:04.947Z,8.13
2019-04-21T19:15:04.323Z,9.18
2019-04-21T19:20:14.411Z,8.88
2019-04-21T19:22:38.771Z,11.95
2019-04-21T19:25:11.500Z,23.38
2019-04-21T19:27:42.167Z,98.52
2019-04-21T19:30:23.556Z,155.00
2019-04-21T19:32:41.662Z,146.37
2019-04-21T19:35:00.322Z,131.45
2019-04-21T19:37:33.613Z,112.57
2019-04-21T19:40:10.531Z,132.12
2019-04-21T19:42:42.105Z,159.90
2019-04-21T19:45:17.569Z,117.05
2019-04-21T19:47:52.696Z,58.10
2019-04-21T19:50:33.595Z,35.30
2019-04-21T19:52:48.634Z,25.95
2019-04-21T19:55:09.736Z,25.92
2019-04-21T19:57:39.330Z,24.40
2019-04-21T20:00:10.113Z,24.80
2019-04-21T20:02:40.529Z,27.85
2019-04-21T20:05:15.390Z,27.82
2019-04-21T20:08:01.568Z,27.90
2019-04-21T20:10:32.815Z,22.95
2019-04-21T20:13:06.401Z,24.95
2019-04-21T20:15:35.881Z,24.82
2019-04-21T20:17:58.581Z,25.00
2019-04-21T20:20:17.178Z,22.75
2019-04-21T20:25:20.894Z,22.30
2019-04-21T20:27:55.432Z,20.12
2019-04-21T20:30:40.485Z,19.37
2019-04-21T20:33:19.761Z,18.27
2019-04-21T20:35:46.839Z,17.10
2019-04-21T20:38:10.774Z,18.32
2019-04-21T20:40:35.856Z,19.02
2019-04-21T20:43:23.955Z,18.27
2019-04-21T20:45:47.325Z,17.65
2019-04-21T20:48:10.863Z,18.12
2019-04-21T20:50:44.739Z,18.15
2019-04-21T20:53:14.956Z,24.25
2019-04-21T20:55:48.394Z,37.88
2019-04-21T20:58:15.077Z,35.85
2019-04-21T21:01:08.170Z,52.50
2019-04-21T21:03:24.678Z,57.40
2019-04-21T21:05:49.489Z,61.65
2019-04-21T21:08:31.427Z,74.22
2019-04-21T21:10:53.487Z,77.42
2019-04-21T21:13:33.394Z,96.78
2019-04-21T21:16:10.806Z,144.20
2019-04-21T21:18:48.215Z,113.92
2019-04-21T21:21:03.325Z,94.67
2019-04-21T21:23:36.275Z,132.03
2019-04-21T21:26:01.885Z,91.37
2019-04-21T21:28:32.650Z,43.40
2019-04-21T21:31:11.754Z,32.78
2019-04-21T21:33:35.485Z,29.92
2019-04-21T21:36:06.654Z,31.80
2019-04-21T21:38:40.593Z,45.12
2019-04-21T21:40:59.879Z,75.15
2019-04-21T21:43:25.046Z,55.48
2019-04-21T21:45:57.892Z,59.60
2019-04-21T21:48:38.243Z,37.15
2019-04-21T21:51:08.138Z,41.40
2019-04-21T21:53:31.733Z,29.67
2019-04-21T21:55:58.805Z,20.15
2019-04-21T21:58:36.460Z,17.55
2019-04-21T22:01:04.193Z,15.90
2019-04-21T22:03:36.730Z,15.05
2019-04-21T22:06:07.863Z,14.55
2019-04-21T22:08:34.378Z,15.00
2019-04-21T22:11:05.308Z,22.10
2019-04-21T22:13:43.604Z,31.20
2019-04-21T22:16:10.373Z,27.80
2019-04-21T22:19:02.219Z,23.38
2019-04-21T22:21:18.191Z,20.60
2019-04-21T22:24:05.404Z,17.48
2019-04-21T22:26:29.663Z,16.32
2019-04-21T22:29:19.369Z,17.23
2019-04-21T22:31:52.753Z,18.17
2019-04-21T22:34:27.721Z,17.30
2019-04-21T22:37:01.515Z,18.27
2019-04-21T22:39:42.075Z,18.73
2019-04-21T22:42:01.718Z,18.37
2019-04-21T22:44:24.764Z,19.40
2019-04-21T22:47:02.843Z,20.25
2019-04-21T22:49:26.483Z,19.95
2019-04-21T22:51:57.329Z,20.48
2019-04-21T22:54:35.483Z,20.25
2019-04-21T22:57:05.243Z,21.75
2019-04-21T22:59:30.537Z,20.00
2019-04-21T23:02:01.505Z,19.37
2019-04-21T23:04:35.884Z,19.65
2019-04-21T23:07:07.475Z,20.90
2019-04-21T23:09:33.243Z,18.65
2019-04-21T23:12:03.325Z,18.30
2019-04-21T23:14:45.429Z,21.45
2019-04-21T23:17:29.780Z,18.37
2019-04-21T23:19:53.834Z,23.60
2019-04-21T23:22:24.829Z,21.25
2019-04-21T23:24:59.213Z,23.75
2019-04-21T23:27:20.573Z,21.90
2019-04-21T23:30:00.219Z,23.02
2019-04-21T23:32:25.717Z,21.97
2019-04-21T23:34:43.807Z,19.40
2019-04-21T23:37:19.524Z,19.05
2019-04-21T23:39:45.400Z,19.40
2019-04-21T23:42:20.458Z,18.02
2019-04-21T23:44:51.458Z,16.80
2019-04-21T23:47:29.199Z,16.30
2019-04-21T23:49:56.631Z,15.35
2019-04-21T23:52:19.840Z,14.78
2019-04-21T23:54:49.464Z,14.30
2019-04-21T23:57:28.546Z,13.18
2019-04-21T23:59:55.111Z,12.28
